createdAt,value
2019-06-27T00:00:12.239Z,7.17
2019-06-27T00:01:15.550Z,7.03
2019-06-27T00:02:21.346Z,7.43
2019-06-27T00:03:24.617Z,7.03
2019-06-27T00:04:28.319Z,6.87
2019-06-27T00:05:31.568Z,7.20
2019-06-27T00:06:35.258Z,7.10
2019-06-27T00:07:38.494Z,7.73
2019-06-27T00:08:42.166Z,7.17
2019-06-27T00:09:45.444Z,7.37
2019-06-27T00:10:49.078Z,8.57
2019-06-27T00:11:52.317Z,8.27
2019-06-27T00:12:55.930Z,7.70
2019-06-27T00:13:59.538Z,7.53
2019-06-27T00:15:03.763Z,7.00
2019-06-27T00:16:07.346Z,7.43
2019-06-27T00:17:11.508Z,7.30
2019-06-27T00:18:15.082Z,7.70
2019-06-27T00:19:19.270Z,6.80
2019-06-27T00:20:22.863Z,7.20
2019-06-27T00:21:27.042Z,7.90
2019-06-27T00:22:30.651Z,8.40
2019-06-27T00:23:34.868Z,7.17
2019-06-27T00:24:38.523Z,6.77
2019-06-27T00:25:42.688Z,7.70
2019-06-27T00:26:56.647Z,7.40
2019-06-27T00:27:52.139Z,6.93
2019-06-27T00:28:55.715Z,7.80
2019-06-27T00:29:59.878Z,6.77
2019-06-27T00:31:03.494Z,8.10
2019-06-27T00:32:07.661Z,7.70
2019-06-27T00:33:11.238Z,7.00
2019-06-27T00:34:15.400Z,7.20
2019-06-27T00:35:18.972Z,7.30
2019-06-27T00:36:23.179Z,7.37
2019-06-27T00:37:26.760Z,6.70
2019-06-27T00:38:30.961Z,7.00
2019-06-27T00:39:34.526Z,6.40
2019-06-27T00:40:38.728Z,7.40
2019-06-27T00:41:42.310Z,7.27
2019-06-27T00:42:46.463Z,7.43
2019-06-27T00:43:50.039Z,7.20
2019-06-27T00:44:54.196Z,7.10
2019-06-27T00:45:57.818Z,6.70
2019-06-27T00:47:01.982Z,6.73
2019-06-27T00:48:05.550Z,6.90
2019-06-27T00:49:09.714Z,6.33
2019-06-27T00:50:13.355Z,6.93
2019-06-27T00:51:17.555Z,7.13
2019-06-27T00:52:21.127Z,7.37
2019-06-27T00:53:25.294Z,7.50
2019-06-27T00:54:28.890Z,5.83
2019-06-27T00:55:33.045Z,6.90
2019-06-27T00:56:36.635Z,7.37
2019-06-27T00:57:40.803Z,6.60
2019-06-27T00:58:44.409Z,7.17
2019-06-27T00:59:48.567Z,6.97
2019-06-27T01:00:52.207Z,6.83
2019-06-27T01:01:56.363Z,7.40
2019-06-27T01:02:59.982Z,7.10
2019-06-27T01:04:04.140Z,6.60
2019-06-27T01:05:08.163Z,6.33
2019-06-27T01:06:12.311Z,7.10
2019-06-27T01:07:15.916Z,7.27
2019-06-27T01:08:20.158Z,7.43
2019-06-27T01:09:23.689Z,6.60
2019-06-27T01:10:27.906Z,6.73
2019-06-27T01:11:31.709Z,6.93
2019-06-27T01:12:35.914Z,7.17
2019-06-27T01:13:39.567Z,7.40
2019-06-27T01:14:43.739Z,6.70
2019-06-27T01:15:47.322Z,7.03
2019-06-27T01:16:51.494Z,6.10
2019-06-27T01:17:55.103Z,6.77
2019-06-27T01:18:59.255Z,5.70
2019-06-27T01:20:02.962Z,6.30
2019-06-27T01:21:07.054Z,5.90
2019-06-27T01:22:10.730Z,6.20
2019-06-27T01:23:14.878Z,6.60
2019-06-27T01:24:18.514Z,7.23
2019-06-27T01:25:25.395Z,7.10
2019-06-27T01:26:28.988Z,7.63
2019-06-27T01:27:33.138Z,8.00
2019-06-27T01:28:36.714Z,7.77
2019-06-27T01:29:40.915Z,7.47
2019-06-27T01:30:44.972Z,8.40
2019-06-27T01:31:49.123Z,8.40
2019-06-27T01:32:52.747Z,7.83
2019-06-27T01:33:56.904Z,8.20
2019-06-27T01:35:04.095Z,8.58
2019-06-27T01:36:06.299Z,9.43
2019-06-27T01:37:09.875Z,8.35
2019-06-27T01:38:14.060Z,9.00
2019-06-27T01:39:17.641Z,9.08
2019-06-27T01:40:21.903Z,9.48
2019-06-27T01:41:25.522Z,9.40
2019-06-27T01:42:29.761Z,9.50
2019-06-27T01:43:33.327Z,9.30
2019-06-27T01:44:38.559Z,8.70
2019-06-27T01:45:43.820Z,9.35
2019-06-27T01:46:47.399Z,9.37
2019-06-27T01:47:51.595Z,10.00
2019-06-27T01:48:55.166Z,9.80
2019-06-27T01:49:59.342Z,9.45
2019-06-27T01:51:02.991Z,10.30
2019-06-27T01:52:07.362Z,9.70
2019-06-27T01:53:10.954Z,9.70
2019-06-27T01:54:15.129Z,10.28
2019-06-27T01:55:18.722Z,9.77
2019-06-27T01:56:22.879Z,9.80
2019-06-27T01:57:26.478Z,10.40
2019-06-27T01:58:30.655Z,10.40
2019-06-27T01:59:34.239Z,10.50
2019-06-27T02:00:38.403Z,11.25
2019-06-27T02:01:41.979Z,10.80
2019-06-27T02:02:46.240Z,10.93
2019-06-27T02:03:49.891Z,10.03
2019-06-27T02:04:54.080Z,10.82
2019-06-27T02:05:57.681Z,11.27
2019-06-27T02:07:01.919Z,9.57
2019-06-27T02:08:05.508Z,10.40
2019-06-27T02:09:09.687Z,9.77
2019-06-27T02:10:13.661Z,10.63
2019-06-27T02:11:17.750Z,12.13
2019-06-27T02:12:21.360Z,11.40
2019-06-27T02:13:25.553Z,12.47
2019-06-27T02:14:29.103Z,11.93
2019-06-27T02:15:33.292Z,12.27
2019-06-27T02:16:36.951Z,11.60
2019-06-27T02:17:41.098Z,11.73
2019-06-27T02:18:44.700Z,11.45
2019-06-27T02:19:48.875Z,11.80
2019-06-27T02:20:52.479Z,10.30
2019-06-27T02:21:56.647Z,11.23
2019-06-27T02:23:00.230Z,10.60
2019-06-27T02:24:04.408Z,11.60
2019-06-27T02:25:08.658Z,11.97
2019-06-27T02:26:12.818Z,11.18
2019-06-27T02:27:16.427Z,12.63
2019-06-27T02:28:20.584Z,12.30
2019-06-27T02:29:24.189Z,11.80
2019-06-27T02:30:39.989Z,12.43
2019-06-27T02:31:43.519Z,13.45
2019-06-27T02:32:47.665Z,13.22
2019-06-27T02:33:51.278Z,13.83
2019-06-27T02:34:55.439Z,14.33
2019-06-27T02:35:59.038Z,13.78
2019-06-27T02:37:03.198Z,13.90
2019-06-27T02:38:07.764Z,14.33
2019-06-27T02:39:11.919Z,13.32
2019-06-27T02:40:15.567Z,13.68
2019-06-27T02:41:19.733Z,14.50
2019-06-27T02:42:23.384Z,14.03
2019-06-27T02:43:27.592Z,13.58
2019-06-27T02:44:31.172Z,13.65
2019-06-27T02:45:35.354Z,15.48
2019-06-27T02:46:38.938Z,14.55
2019-06-27T02:47:43.095Z,15.35
2019-06-27T02:48:46.675Z,14.75
2019-06-27T02:49:51.138Z,14.85
2019-06-27T02:50:54.743Z,15.60
2019-06-27T02:51:58.946Z,16.20
2019-06-27T02:53:02.516Z,15.50
2019-06-27T02:54:06.692Z,15.48
2019-06-27T02:55:10.332Z,15.20
2019-06-27T02:56:14.495Z,15.90
2019-06-27T02:57:18.179Z,15.98
2019-06-27T02:58:31.395Z,15.90
2019-06-27T02:59:27.635Z,14.80
2019-06-27T03:00:31.792Z,15.60
2019-06-27T03:01:35.413Z,15.25
2019-06-27T03:02:39.646Z,15.45
2019-06-27T03:03:43.230Z,15.23
2019-06-27T03:04:47.440Z,16.25
2019-06-27T03:05:51.089Z,15.70
2019-06-27T03:06:55.263Z,15.55
2019-06-27T03:07:58.844Z,16.12
2019-06-27T03:09:03.073Z,14.65
2019-06-27T03:10:10.029Z,15.55
2019-06-27T03:11:14.179Z,15.45
2019-06-27T03:12:17.751Z,15.18
2019-06-27T03:13:21.920Z,15.28
2019-06-27T03:14:26.122Z,15.70
2019-06-27T03:15:30.263Z,14.90
2019-06-27T03:16:33.841Z,14.28
2019-06-27T03:17:38.015Z,16.52
2019-06-27T03:18:41.712Z,15.48
2019-06-27T03:19:45.960Z,15.43
2019-06-27T03:20:49.584Z,16.45
2019-06-27T03:21:53.736Z,14.90
2019-06-27T03:22:57.317Z,14.70
2019-06-27T03:24:01.476Z,15.88
2019-06-27T03:25:05.390Z,14.85
2019-06-27T03:26:09.592Z,15.60
2019-06-27T03:27:13.957Z,15.43
2019-06-27T03:28:18.115Z,16.40
2019-06-27T03:29:21.692Z,15.88
2019-06-27T03:30:25.923Z,16.65
2019-06-27T03:31:29.545Z,15.15
2019-06-27T03:32:33.724Z,14.98
2019-06-27T03:33:37.341Z,14.58
2019-06-27T03:34:41.500Z,15.23
2019-06-27T03:35:45.188Z,14.87
2019-06-27T03:36:49.417Z,14.35
2019-06-27T03:37:53.056Z,14.60
2019-06-27T03:38:57.215Z,14.55
2019-06-27T03:40:00.875Z,15.40
2019-06-27T03:41:05.031Z,15.00
2019-06-27T03:42:08.654Z,15.95
2019-06-27T03:43:12.814Z,14.55
2019-06-27T03:44:16.385Z,14.38
2019-06-27T03:45:20.580Z,14.00
2019-06-27T03:46:24.164Z,14.68
2019-06-27T03:47:28.315Z,14.53
2019-06-27T03:48:31.900Z,15.05
2019-06-27T03:49:36.134Z,14.50
2019-06-27T03:50:39.831Z,14.13
2019-06-27T03:51:43.967Z,13.65
2019-06-27T03:52:47.540Z,13.15
2019-06-27T03:53:51.803Z,14.20
2019-06-27T03:54:55.551Z,13.40
2019-06-27T03:55:59.703Z,14.07
2019-06-27T03:57:03.313Z,14.93
2019-06-27T03:58:07.479Z,14.38
2019-06-27T03:59:13.401Z,14.60
2019-06-27T04:00:22.935Z,13.50
2019-06-27T04:01:26.567Z,14.55
2019-06-27T04:02:30.727Z,13.70
2019-06-27T04:03:34.308Z,14.93
2019-06-27T04:04:38.466Z,15.72
2019-06-27T04:05:42.040Z,15.18
2019-06-27T04:06:46.365Z,15.43
2019-06-27T04:07:49.987Z,14.87
2019-06-27T04:08:54.147Z,15.03
2019-06-27T04:09:57.802Z,14.60
2019-06-27T04:11:02.034Z,15.20
2019-06-27T04:12:05.557Z,13.78
2019-06-27T04:13:09.750Z,14.68
2019-06-27T04:14:13.387Z,14.78
2019-06-27T04:15:17.544Z,14.47
2019-06-27T04:16:21.168Z,13.83
2019-06-27T04:17:25.294Z,14.80
2019-06-27T04:18:28.887Z,14.20
2019-06-27T04:19:33.091Z,14.53
2019-06-27T04:20:36.670Z,14.33
2019-06-27T04:21:40.852Z,13.80
2019-06-27T04:22:44.434Z,13.50
2019-06-27T04:23:48.587Z,13.38
2019-06-27T04:24:52.215Z,13.35
2019-06-27T04:25:56.380Z,11.83
2019-06-27T04:26:59.964Z,11.65
2019-06-27T04:28:04.555Z,11.20
2019-06-27T04:29:08.141Z,11.80
2019-06-27T04:30:12.692Z,11.12
2019-06-27T04:31:16.277Z,12.07
2019-06-27T04:32:20.499Z,11.33
2019-06-27T04:33:24.083Z,11.10
2019-06-27T04:34:28.249Z,11.78
2019-06-27T04:35:32.391Z,12.73
2019-06-27T04:36:36.554Z,12.00
2019-06-27T04:37:40.131Z,12.18
2019-06-27T04:38:44.294Z,13.10
2019-06-27T04:39:47.871Z,12.75
2019-06-27T04:40:52.132Z,12.88
2019-06-27T04:41:55.714Z,12.60
2019-06-27T04:43:04.917Z,11.93
2019-06-27T04:44:05.172Z,11.40
2019-06-27T04:45:09.704Z,11.75
2019-06-27T04:46:13.327Z,11.83
2019-06-27T04:47:17.497Z,12.55
2019-06-27T04:48:21.058Z,13.03
2019-06-27T04:49:25.291Z,13.80
2019-06-27T04:50:28.879Z,12.13
2019-06-27T04:51:33.129Z,13.15
2019-06-27T04:52:36.727Z,12.00
2019-06-27T04:53:40.895Z,13.18
2019-06-27T04:54:44.471Z,11.38
2019-06-27T04:55:48.666Z,12.10
2019-06-27T04:56:52.256Z,11.25
2019-06-27T04:57:56.501Z,11.00
2019-06-27T04:59:00.084Z,10.08
2019-06-27T05:00:05.589Z,9.85
2019-06-27T05:01:09.157Z,9.13
2019-06-27T05:02:13.363Z,8.00
2019-06-27T05:03:16.943Z,8.83
2019-06-27T05:04:21.099Z,8.73
2019-06-27T05:05:24.674Z,9.68
2019-06-27T05:06:28.832Z,8.03
2019-06-27T05:07:32.547Z,8.40
2019-06-27T05:08:36.658Z,8.45
2019-06-27T05:09:40.231Z,8.05
2019-06-27T05:10:44.400Z,8.10
2019-06-27T05:11:47.982Z,8.08
2019-06-27T05:12:52.265Z,8.03
2019-06-27T05:13:55.831Z,8.28
2019-06-27T05:14:59.986Z,8.33
2019-06-27T05:16:03.651Z,8.30
2019-06-27T05:17:07.798Z,8.30
2019-06-27T05:18:11.415Z,7.42
2019-06-27T05:19:15.584Z,7.87
2019-06-27T05:20:19.163Z,9.03
2019-06-27T05:21:23.325Z,8.40
2019-06-27T05:22:26.924Z,8.58
2019-06-27T05:23:31.121Z,8.10
2019-06-27T05:24:34.690Z,8.78
2019-06-27T05:25:38.850Z,8.63
2019-06-27T05:26:42.665Z,8.33
2019-06-27T05:27:46.799Z,8.58
2019-06-27T05:28:50.406Z,7.97
2019-06-27T05:30:08.114Z,7.15
2019-06-27T05:30:59.835Z,7.60
2019-06-27T05:32:04.061Z,8.00
2019-06-27T05:33:07.578Z,8.45
2019-06-27T05:34:11.811Z,7.85
2019-06-27T05:35:15.420Z,7.33
2019-06-27T05:36:19.916Z,7.87
2019-06-27T05:37:23.490Z,7.87
2019-06-27T05:38:27.687Z,7.35
2019-06-27T05:39:31.219Z,7.53
2019-06-27T05:40:35.457Z,7.20
2019-06-27T05:41:39.070Z,7.25
2019-06-27T05:42:43.265Z,6.43
2019-06-27T05:43:46.829Z,6.70
2019-06-27T05:44:51.040Z,6.83
2019-06-27T05:45:54.586Z,7.77
2019-06-27T05:46:58.735Z,6.97
2019-06-27T05:48:02.336Z,6.60
2019-06-27T05:49:06.626Z,6.72
2019-06-27T05:50:10.642Z,6.28
2019-06-27T05:51:14.819Z,6.70
2019-06-27T05:52:18.394Z,6.20
2019-06-27T05:53:22.584Z,6.50
2019-06-27T05:54:26.166Z,6.37
2019-06-27T05:55:30.372Z,7.10
2019-06-27T05:56:34.031Z,7.57
2019-06-27T05:57:38.221Z,6.62
2019-06-27T05:58:41.798Z,7.23
2019-06-27T05:59:45.957Z,6.60
2019-06-27T06:00:49.549Z,6.20
2019-06-27T06:01:53.734Z,5.87
2019-06-27T06:02:57.306Z,6.20
2019-06-27T06:04:01.467Z,5.60
2019-06-27T06:05:06.776Z,5.65
2019-06-27T06:06:10.950Z,5.87
2019-06-27T06:07:14.571Z,5.62
2019-06-27T06:08:18.728Z,5.50
2019-06-27T06:09:22.304Z,6.08
2019-06-27T06:10:26.459Z,5.95
2019-06-27T06:11:30.029Z,6.20
2019-06-27T06:12:34.682Z,5.50
2019-06-27T06:13:38.256Z,5.67
2019-06-27T06:14:42.454Z,5.78
2019-06-27T06:15:46.015Z,5.55
2019-06-27T06:16:50.244Z,6.10
2019-06-27T06:17:53.881Z,5.58
2019-06-27T06:18:58.047Z,5.28
2019-06-27T06:20:01.653Z,5.42
2019-06-27T06:21:05.877Z,6.00
2019-06-27T06:22:09.450Z,5.30
2019-06-27T06:23:13.602Z,5.25
2019-06-27T06:24:17.177Z,5.35
2019-06-27T06:25:21.368Z,4.92
2019-06-27T06:26:24.958Z,5.47
2019-06-27T06:27:29.177Z,5.42
2019-06-27T06:28:32.742Z,5.47
2019-06-27T06:29:36.932Z,5.55
2019-06-27T06:30:44.898Z,5.40
2019-06-27T06:31:49.289Z,4.72
2019-06-27T06:32:51.562Z,5.28
2019-06-27T06:33:55.721Z,4.50
2019-06-27T06:34:59.341Z,4.75
2019-06-27T06:36:03.495Z,4.95
2019-06-27T06:37:08.263Z,4.92
2019-06-27T06:38:12.499Z,6.22
2019-06-27T06:39:16.074Z,6.22
2019-06-27T06:40:20.538Z,6.15
2019-06-27T06:41:24.122Z,5.30
2019-06-27T06:42:28.322Z,5.55
2019-06-27T06:43:31.897Z,5.03
2019-06-27T06:44:36.090Z,4.75
2019-06-27T06:45:39.675Z,4.65
2019-06-27T06:46:43.873Z,4.85
2019-06-27T06:47:47.434Z,4.90
2019-06-27T06:48:51.630Z,4.50
2019-06-27T06:49:55.192Z,4.97
2019-06-27T06:50:59.370Z,4.40
2019-06-27T06:52:02.960Z,5.10
2019-06-27T06:53:07.108Z,4.97
2019-06-27T06:54:10.675Z,4.40
2019-06-27T06:55:15.207Z,4.75
2019-06-27T06:56:18.783Z,4.72
2019-06-27T06:57:22.936Z,4.77
2019-06-27T06:58:26.542Z,4.83
2019-06-27T06:59:30.698Z,5.30
2019-06-27T07:00:34.295Z,4.60
2019-06-27T07:01:38.455Z,4.50
2019-06-27T07:02:42.014Z,4.53
2019-06-27T07:03:48.682Z,4.50
2019-06-27T07:04:52.214Z,5.03
2019-06-27T07:05:56.346Z,4.47
2019-06-27T07:06:59.908Z,4.40
2019-06-27T07:08:04.106Z,4.70
2019-06-27T07:09:07.740Z,4.90
2019-06-27T07:10:12.923Z,4.67
2019-06-27T07:11:16.500Z,3.95
2019-06-27T07:12:20.687Z,4.63
2019-06-27T07:13:24.526Z,4.90
2019-06-27T07:14:28.691Z,5.40
2019-06-27T07:15:32.247Z,4.70
2019-06-27T07:16:36.453Z,4.43
2019-06-27T07:17:40.051Z,4.97
2019-06-27T07:18:44.259Z,5.50
2019-06-27T07:19:47.817Z,5.23
2019-06-27T07:20:51.971Z,5.10
2019-06-27T07:21:55.573Z,4.90
2019-06-27T07:22:59.718Z,4.73
2019-06-27T07:24:03.379Z,4.80
2019-06-27T07:25:07.899Z,5.60
2019-06-27T07:26:11.502Z,5.27
2019-06-27T07:27:15.748Z,4.93
2019-06-27T07:28:19.876Z,4.60
2019-06-27T07:29:24.022Z,4.57
2019-06-27T07:30:27.628Z,4.70
2019-06-27T07:31:31.847Z,4.40
2019-06-27T07:32:35.685Z,4.37
2019-06-27T07:33:39.847Z,4.93
2019-06-27T07:34:43.424Z,3.87
2019-06-27T07:35:47.611Z,5.13
2019-06-27T07:36:51.177Z,4.00
2019-06-27T07:37:55.362Z,4.20
2019-06-27T07:38:58.935Z,5.07
2019-06-27T07:40:03.128Z,4.80
2019-06-27T07:41:06.702Z,4.30
2019-06-27T07:42:10.850Z,4.00
2019-06-27T07:43:14.428Z,4.60
2019-06-27T07:44:20.381Z,3.77
2019-06-27T07:45:23.819Z,3.63
2019-06-27T07:46:27.965Z,3.67
2019-06-27T07:47:31.539Z,3.73
2019-06-27T07:48:35.690Z,4.60
2019-06-27T07:49:39.299Z,4.73
2019-06-27T07:50:43.451Z,4.13
2019-06-27T07:51:47.023Z,4.37
2019-06-27T07:52:51.177Z,4.77
2019-06-27T07:53:54.782Z,5.07
2019-06-27T07:54:58.960Z,3.77
2019-06-27T07:56:02.541Z,3.80
2019-06-27T07:57:06.687Z,4.10
2019-06-27T07:58:10.254Z,3.70
2019-06-27T07:59:14.404Z,4.10
2019-06-27T08:00:19.825Z,3.60
2019-06-27T08:01:34.404Z,4.00
2019-06-27T08:02:29.248Z,3.73
2019-06-27T08:03:33.397Z,3.83
2019-06-27T08:04:36.971Z,3.70
2019-06-27T08:05:41.153Z,3.80
2019-06-27T08:06:44.789Z,3.83
2019-06-27T08:07:48.957Z,3.27
2019-06-27T08:08:52.551Z,3.63
2019-06-27T08:09:56.698Z,4.23
2019-06-27T08:11:00.300Z,3.37
2019-06-27T08:12:04.482Z,3.60
2019-06-27T08:13:08.051Z,3.67
2019-06-27T08:14:12.251Z,4.40
2019-06-27T08:15:16.547Z,4.17
2019-06-27T08:16:20.726Z,3.77
2019-06-27T08:17:24.299Z,4.07
2019-06-27T08:18:28.581Z,3.83
2019-06-27T08:19:32.173Z,3.73
2019-06-27T08:20:36.314Z,4.20
2019-06-27T08:21:39.926Z,3.40
2019-06-27T08:22:44.070Z,3.87
2019-06-27T08:23:47.630Z,3.70
2019-06-27T08:24:51.788Z,3.60
2019-06-27T08:25:55.407Z,4.33
2019-06-27T08:26:59.543Z,3.73
2019-06-27T08:28:03.113Z,4.00
2019-06-27T08:29:07.322Z,3.70
2019-06-27T08:30:11.371Z,4.03
2019-06-27T08:31:15.538Z,3.30
2019-06-27T08:32:19.102Z,3.60
2019-06-27T08:33:23.254Z,3.70
2019-06-27T08:34:26.823Z,4.00
2019-06-27T08:35:33.480Z,4.00
2019-06-27T08:36:36.242Z,4.10
2019-06-27T08:37:40.466Z,4.20
2019-06-27T08:38:44.053Z,4.20
2019-06-27T08:39:48.351Z,3.57
2019-06-27T08:40:51.924Z,4.00
2019-06-27T08:41:56.112Z,4.00
2019-06-27T08:42:59.673Z,3.53
2019-06-27T08:44:03.830Z,4.00
2019-06-27T08:45:08.368Z,3.67
2019-06-27T08:46:12.513Z,3.43
2019-06-27T08:47:16.079Z,4.43
2019-06-27T08:48:20.270Z,4.00
2019-06-27T08:49:23.830Z,3.60
2019-06-27T08:50:27.969Z,3.30
2019-06-27T08:51:31.534Z,3.40
2019-06-27T08:52:35.714Z,4.27
2019-06-27T08:53:39.288Z,3.63
2019-06-27T08:54:43.439Z,3.80
2019-06-27T08:55:47.036Z,4.03
2019-06-27T08:56:51.170Z,4.10
2019-06-27T08:57:54.773Z,4.40
2019-06-27T08:58:58.970Z,4.20
2019-06-27T09:00:02.547Z,3.70
2019-06-27T09:01:06.709Z,4.50
2019-06-27T09:02:10.274Z,4.07
2019-06-27T09:03:14.438Z,4.10
2019-06-27T09:04:18.038Z,4.43
2019-06-27T09:05:22.227Z,3.87
2019-06-27T09:06:25.794Z,4.27
2019-06-27T09:07:29.939Z,3.93
2019-06-27T09:08:33.498Z,3.80
2019-06-27T09:09:37.686Z,4.10
2019-06-27T09:10:41.250Z,4.03
2019-06-27T09:11:45.397Z,3.83
2019-06-27T09:12:49.026Z,3.80
2019-06-27T09:13:53.186Z,4.10
2019-06-27T09:14:56.779Z,3.40
2019-06-27T09:16:00.931Z,4.70
2019-06-27T09:17:04.500Z,4.03
2019-06-27T09:18:08.643Z,3.90
2019-06-27T09:19:12.216Z,3.77
2019-06-27T09:20:16.465Z,3.87
2019-06-27T09:21:20.040Z,3.63
2019-06-27T09:22:24.183Z,3.67
2019-06-27T09:23:27.811Z,4.00
2019-06-27T09:24:31.960Z,4.20
2019-06-27T09:25:35.527Z,3.80
2019-06-27T09:26:39.663Z,4.17
2019-06-27T09:27:43.243Z,4.30
2019-06-27T09:28:47.434Z,4.10
2019-06-27T09:29:51.033Z,3.53
2019-06-27T09:30:55.241Z,4.17
2019-06-27T09:31:58.799Z,4.03
2019-06-27T09:33:02.952Z,3.77
2019-06-27T09:34:06.556Z,3.47
2019-06-27T09:35:11.244Z,4.07
2019-06-27T09:36:14.797Z,3.90
2019-06-27T09:37:18.942Z,3.70
2019-06-27T09:38:22.502Z,3.50
2019-06-27T09:39:27.138Z,4.10
2019-06-27T09:40:30.827Z,4.50
2019-06-27T09:41:35.039Z,3.90
2019-06-27T09:42:38.599Z,4.30
2019-06-27T09:43:42.747Z,4.00
2019-06-27T09:44:46.345Z,4.77
2019-06-27T09:45:50.519Z,3.70
2019-06-27T09:46:54.087Z,4.27
2019-06-27T09:47:58.225Z,4.57
2019-06-27T09:49:01.787Z,4.17
2019-06-27T09:50:07.969Z,4.63
2019-06-27T09:51:11.551Z,4.20
2019-06-27T09:52:15.686Z,4.30
2019-06-27T09:53:19.278Z,4.23
2019-06-27T09:54:23.434Z,3.40
2019-06-27T09:55:27.003Z,4.77
2019-06-27T09:56:31.152Z,4.40
2019-06-27T09:57:34.788Z,4.90
2019-06-27T09:58:38.986Z,4.40
2019-06-27T09:59:42.599Z,4.40
2019-06-27T10:00:46.748Z,4.00
2019-06-27T10:01:50.310Z,3.70
2019-06-27T10:02:54.532Z,3.43
2019-06-27T10:03:58.082Z,3.73
2019-06-27T10:05:02.266Z,3.63
2019-06-27T10:06:05.902Z,3.57
2019-06-27T10:07:10.063Z,4.20
2019-06-27T10:08:13.617Z,4.70
2019-06-27T10:09:17.802Z,3.70
2019-06-27T10:10:21.512Z,4.20
2019-06-27T10:11:25.651Z,3.70
2019-06-27T10:12:41.836Z,3.63
2019-06-27T10:13:35.024Z,3.73
2019-06-27T10:14:38.607Z,3.77
2019-06-27T10:15:42.831Z,4.33
2019-06-27T10:16:46.405Z,3.63
2019-06-27T10:17:50.650Z,4.03
2019-06-27T10:18:54.233Z,4.43
2019-06-27T10:19:58.449Z,3.90
2019-06-27T10:21:01.963Z,4.57
2019-06-27T10:22:06.109Z,3.90
2019-06-27T10:23:09.674Z,3.87
2019-06-27T10:24:13.813Z,3.63
2019-06-27T10:25:17.410Z,3.97
2019-06-27T10:26:21.560Z,3.97
2019-06-27T10:27:25.170Z,3.90
2019-06-27T10:28:29.311Z,4.40
2019-06-27T10:29:32.883Z,4.33
2019-06-27T10:30:37.027Z,3.63
2019-06-27T10:31:40.594Z,4.57
2019-06-27T10:32:58.269Z,3.20
2019-06-27T10:33:50.148Z,3.80
2019-06-27T10:34:54.404Z,2.83
2019-06-27T10:35:57.970Z,3.20
2019-06-27T10:37:02.132Z,4.17
2019-06-27T10:38:05.723Z,4.20
2019-06-27T10:39:09.891Z,4.07
2019-06-27T10:40:13.879Z,4.07
2019-06-27T10:41:18.050Z,4.47
2019-06-27T10:42:21.615Z,3.70
2019-06-27T10:43:25.762Z,4.30
2019-06-27T10:44:29.327Z,3.67
2019-06-27T10:45:33.479Z,3.93
2019-06-27T10:46:37.082Z,3.97
2019-06-27T10:47:41.231Z,5.03
2019-06-27T10:48:44.795Z,3.80
2019-06-27T10:49:48.995Z,4.13
2019-06-27T10:50:54.731Z,4.40
2019-06-27T10:51:58.430Z,3.93
2019-06-27T10:53:02.000Z,3.97
2019-06-27T10:54:06.146Z,4.37
2019-06-27T10:55:09.849Z,4.33
2019-06-27T10:56:14.018Z,4.20
2019-06-27T10:57:17.607Z,3.73
2019-06-27T10:58:21.759Z,3.83
2019-06-27T10:59:25.328Z,3.80
2019-06-27T11:00:29.483Z,2.70
2019-06-27T11:01:33.034Z,4.03
2019-06-27T11:02:37.210Z,3.30
2019-06-27T11:03:40.778Z,3.47
2019-06-27T11:04:44.937Z,3.60
2019-06-27T11:05:48.517Z,3.80
2019-06-27T11:06:52.647Z,3.90
2019-06-27T11:07:56.246Z,3.77
2019-06-27T11:09:00.392Z,4.67
2019-06-27T11:10:04.885Z,3.47
2019-06-27T11:11:09.045Z,4.07
2019-06-27T11:12:12.598Z,3.40
2019-06-27T11:13:16.783Z,3.63
2019-06-27T11:14:20.344Z,3.50
2019-06-27T11:15:24.642Z,3.13
2019-06-27T11:16:28.225Z,3.37
2019-06-27T11:17:32.370Z,3.83
2019-06-27T11:18:35.934Z,4.37
2019-06-27T11:19:52.037Z,3.57
2019-06-27T11:20:45.323Z,4.10
2019-06-27T11:21:49.490Z,3.53
2019-06-27T11:22:53.039Z,3.87
2019-06-27T11:23:57.202Z,4.17
2019-06-27T11:25:00.768Z,4.00
2019-06-27T11:26:05.198Z,4.37
2019-06-27T11:27:08.803Z,3.70
2019-06-27T11:28:12.965Z,4.30
2019-06-27T11:29:16.537Z,3.47
2019-06-27T11:30:20.950Z,4.00
2019-06-27T11:31:24.511Z,3.33
2019-06-27T11:32:28.687Z,3.60
2019-06-27T11:33:33.316Z,3.60
2019-06-27T11:34:37.535Z,4.13
2019-06-27T11:35:41.091Z,4.00
2019-06-27T11:36:46.633Z,4.00
2019-06-27T11:37:50.314Z,3.70
2019-06-27T11:38:54.498Z,3.50
2019-06-27T11:39:58.067Z,3.90
2019-06-27T11:41:02.206Z,3.70
2019-06-27T11:42:05.781Z,4.10
2019-06-27T11:43:09.932Z,4.00
2019-06-27T11:44:13.518Z,3.63
2019-06-27T11:45:17.842Z,3.50
2019-06-27T11:46:21.394Z,3.83
2019-06-27T11:47:25.552Z,3.37
2019-06-27T11:48:29.134Z,3.40
2019-06-27T11:49:33.273Z,4.00
2019-06-27T11:50:36.875Z,4.30
2019-06-27T11:51:41.029Z,4.50
2019-06-27T11:52:47.264Z,3.73
2019-06-27T11:53:51.219Z,4.13
2019-06-27T11:54:54.790Z,4.10
2019-06-27T11:55:58.913Z,3.37
2019-06-27T11:57:02.497Z,4.03
2019-06-27T11:58:06.634Z,3.10
2019-06-27T11:59:10.239Z,3.10
2019-06-27T12:00:14.915Z,3.37
2019-06-27T12:01:18.506Z,3.07
2019-06-27T12:02:22.655Z,3.20
2019-06-27T12:03:26.223Z,3.40
2019-06-27T12:04:30.382Z,3.47
2019-06-27T12:05:34.010Z,3.50
2019-06-27T12:06:38.163Z,3.50
2019-06-27T12:07:41.793Z,3.10
2019-06-27T12:08:46.002Z,3.53
2019-06-27T12:09:49.570Z,3.87
2019-06-27T12:10:53.723Z,3.33
2019-06-27T12:11:57.294Z,4.13
2019-06-27T12:13:01.572Z,3.67
2019-06-27T12:14:05.102Z,3.40
2019-06-27T12:15:09.879Z,4.43
2019-06-27T12:16:13.434Z,3.80
2019-06-27T12:17:17.615Z,3.63
2019-06-27T12:18:21.171Z,3.70
2019-06-27T12:19:25.401Z,3.90
2019-06-27T12:20:28.990Z,3.60
2019-06-27T12:21:33.171Z,3.67
2019-06-27T12:22:36.750Z,3.80
2019-06-27T12:23:40.878Z,3.43
2019-06-27T12:24:44.455Z,3.03
2019-06-27T12:25:48.641Z,3.07
2019-06-27T12:26:52.226Z,3.90
2019-06-27T12:27:56.390Z,3.40
2019-06-27T12:28:59.907Z,3.37
2019-06-27T12:30:05.445Z,3.53
2019-06-27T12:31:20.150Z,3.20
2019-06-27T12:32:14.896Z,3.50
2019-06-27T12:33:18.497Z,2.80
2019-06-27T12:34:22.646Z,3.13
2019-06-27T12:35:26.216Z,2.63
2019-06-27T12:36:30.359Z,2.97
2019-06-27T12:37:33.944Z,2.97
2019-06-27T12:38:38.122Z,3.30
2019-06-27T12:39:41.724Z,3.30
2019-06-27T12:40:45.871Z,3.33
2019-06-27T12:41:49.444Z,3.40
2019-06-27T12:42:53.587Z,2.97
2019-06-27T12:43:57.141Z,3.23
2019-06-27T12:45:01.326Z,3.57
2019-06-27T12:46:04.891Z,3.50
2019-06-27T12:47:09.043Z,3.63
2019-06-27T12:48:12.603Z,3.63
2019-06-27T12:49:16.770Z,3.53
2019-06-27T12:50:20.681Z,3.70
2019-06-27T12:51:24.821Z,2.90
2019-06-27T12:52:28.390Z,3.07
2019-06-27T12:53:32.530Z,3.27
2019-06-27T12:54:36.148Z,3.43
2019-06-27T12:55:40.285Z,8.60
2019-06-27T12:56:43.842Z,8.50
2019-06-27T12:57:47.986Z,3.97
2019-06-27T12:58:51.707Z,5.70
2019-06-27T12:59:55.859Z,5.37
2019-06-27T13:00:59.508Z,3.90
2019-06-27T13:02:03.677Z,3.37
2019-06-27T13:03:07.202Z,3.00
2019-06-27T13:04:22.691Z,2.80
2019-06-27T13:05:20.279Z,3.20
2019-06-27T13:06:22.451Z,3.17
2019-06-27T13:07:26.078Z,3.37
2019-06-27T13:08:30.150Z,3.30
2019-06-27T13:09:33.821Z,3.10
2019-06-27T13:10:38.108Z,3.00
2019-06-27T13:11:41.634Z,3.10
2019-06-27T13:12:45.774Z,2.80
2019-06-27T13:13:49.336Z,3.30
2019-06-27T13:14:53.518Z,3.13
2019-06-27T13:15:57.122Z,2.80
2019-06-27T13:17:01.258Z,3.07
2019-06-27T13:18:04.826Z,2.87
2019-06-27T13:19:08.967Z,2.87
2019-06-27T13:20:12.906Z,3.47
2019-06-27T13:21:17.055Z,3.17
2019-06-27T13:22:20.619Z,2.60
2019-06-27T13:23:24.765Z,3.03
2019-06-27T13:24:28.351Z,2.67
2019-06-27T13:25:34.335Z,2.70
2019-06-27T13:26:37.710Z,2.60
2019-06-27T13:27:41.922Z,2.60
2019-06-27T13:28:45.531Z,2.90
2019-06-27T13:29:49.684Z,2.60
2019-06-27T13:30:53.242Z,2.47
2019-06-27T13:31:57.399Z,2.70
2019-06-27T13:33:00.975Z,2.90
2019-06-27T13:34:05.166Z,3.03
2019-06-27T13:35:08.733Z,3.13
2019-06-27T13:36:12.878Z,2.80
2019-06-27T13:37:16.438Z,2.60
2019-06-27T13:38:20.580Z,2.90
2019-06-27T13:39:24.179Z,2.70
2019-06-27T13:40:28.319Z,2.60
2019-06-27T13:41:31.882Z,2.70
2019-06-27T13:42:38.448Z,2.40
2019-06-27T13:43:41.246Z,3.00
2019-06-27T13:44:45.422Z,3.00
2019-06-27T13:45:48.987Z,2.50
2019-06-27T13:46:53.683Z,2.40
2019-06-27T13:47:57.278Z,2.60
2019-06-27T13:49:01.526Z,2.30
2019-06-27T13:50:08.102Z,2.80
2019-06-27T13:51:12.248Z,2.70
2019-06-27T13:52:15.807Z,3.37
2019-06-27T13:53:19.987Z,2.13
2019-06-27T13:54:23.588Z,2.90
2019-06-27T13:55:27.752Z,2.60
2019-06-27T13:56:31.313Z,2.53
2019-06-27T13:57:35.503Z,2.30
2019-06-27T13:58:39.071Z,2.70
2019-06-27T13:59:43.215Z,2.10
2019-06-27T14:00:47.614Z,2.40
2019-06-27T14:01:51.798Z,3.17
2019-06-27T14:02:55.367Z,2.50
2019-06-27T14:03:59.518Z,2.73
2019-06-27T14:05:04.047Z,2.50